Gyumri, Armenia
Current Conditions -  °F | °C
As of 12:00 AM on Saturday 01 Nov 2014 (Local Time) from UDSG Reporting Station
Light Rain Light Rain  
Wind Chill: 45°   Ceiling: 3300
Heat Index: 45°   Visibility: 3mi
Dew Point: 43°   Wind: 0mph
Humidity: 93%   Direction: NA
Pressure: 29.88"   Gusts: NA
Location:  40.78°N, 43.83°E
Report Text: UDSG 311900Z 00000MPS 5000 -RA BR OVC033 07/06 Q1012 R02/CLRD70NOSIG
Loading
Personal Weather Stations






























Interactive Weather Map New forecast layout! Learn more

10-Day Weather Forecast

Advertisements
Track Severe Weather on mobile